Time;durP1;ratioP1;P1;durP2;ratioP2;P2;SDS_P1;SDS_P2;PMS_P1;PMS_P2;Temp;Humidity;BMP_temperature;BMP_pressure;BME280_temperature;BME280_humidity;BME280_pressure;Samples;Min_cycle;Max_cycle;Signal;HPM_P1;HPM_P2
2022/04/11 00:02:01;;;;;;;3.53;2.28;;;8.80;99.90;;;;;;5055102;28;20060;-70
2022/04/11 00:04:28;;;;;;;3.40;2.47;;;8.80;99.90;;;;;;5055060;28;20471;-70
2022/04/11 00:06:54;;;;;;;3.75;2.38;;;8.80;99.90;;;;;;5054932;28;20475;-71
2022/04/11 00:09:19;;;;;;;3.33;2.10;;;8.70;99.90;;;;;;5037025;28;20029;-70
2022/04/11 00:11:46;;;;;;;3.38;2.17;;;8.80;99.90;;;;;;5054844;28;20032;-71
2022/04/11 00:14:12;;;;;;;5.72;2.60;;;8.70;99.90;;;;;;5054821;28;20032;-71
2022/04/11 00:16:39;;;;;;;3.33;2.25;;;8.70;99.90;;;;;;5054834;28;20017;-72
2022/04/11 00:19:05;;;;;;;2.75;2.10;;;8.70;99.90;;;;;;5055067;28;20490;-70
2022/04/11 00:21:31;;;;;;;3.85;2.50;;;8.70;99.90;;;;;;5053781;28;20092;-71
2022/04/11 00:23:57;;;;;;;4.28;2.38;;;8.70;99.90;;;;;;5054688;28;20115;-71
2022/04/11 00:26:22;;;;;;;3.83;2.33;;;8.70;99.90;;;;;;5054630;28;20059;-70
2022/04/11 00:28:48;;;;;;;6.13;2.75;;;8.70;99.90;;;;;;5054843;28;20112;-71
2022/04/11 00:31:14;;;;;;;4.70;2.70;;;8.70;99.90;;;;;;5054457;28;20021;-71
2022/04/11 00:33:39;;;;;;;3.80;2.40;;;8.70;99.90;;;;;;5054755;28;20364;-71
2022/04/11 00:36:05;;;;;;;4.63;2.50;;;8.70;99.90;;;;;;5054727;28;20075;-70
2022/04/11 00:38:31;;;;;;;4.00;2.42;;;8.70;99.90;;;;;;5054434;28;20055;-71
2022/04/11 00:40:56;;;;;;;2.72;2.40;;;8.70;99.90;;;;;;5054351;28;20021;-70
2022/04/11 00:43:32;;;;;;;5.50;2.72;;;8.70;99.90;;;;;;5054307;28;20036;-71
2022/04/11 00:45:58;;;;;;;3.65;2.25;;;8.70;99.90;;;;;;5054221;28;20025;-70
2022/04/11 00:48:24;;;;;;;3.95;2.58;;;8.70;99.90;;;;;;5054209;28;20021;-71
2022/04/11 00:50:52;;;;;;;3.88;2.35;;;8.70;99.90;;;;;;5054133;28;20025;-70
2022/04/11 00:53:18;;;;;;;3.28;2.40;;;8.60;99.90;;;;;;5054016;28;20159;-70
2022/04/11 00:55:43;;;;;;;4.18;2.47;;;8.60;99.90;;;;;;5054077;28;20071;-71
2022/04/11 00:58:09;;;;;;;3.65;2.40;;;8.60;99.90;;;;;;5054291;28;20021;-70
2022/04/11 01:00:36;;;;;;;4.03;2.50;;;8.60;99.90;;;;;;5054204;28;20028;-71
2022/04/11 01:03:02;;;;;;;7.45;2.53;;;8.50;99.90;;;;;;5053866;28;20475;-70
2022/04/11 01:05:28;;;;;;;3.30;2.30;;;8.50;99.90;;;;;;5054111;28;20035;-70
2022/04/11 01:08:02;;;;;;;3.53;2.90;;;8.50;99.90;;;;;;5053821;28;20025;-70
2022/04/11 01:10:27;;;;;;;3.20;2.60;;;8.50;99.90;;;;;;5054038;28;20533;-70
2022/04/11 01:12:53;;;;;;;3.92;2.80;;;8.40;99.90;;;;;;5053602;28;20032;-70
2022/04/11 01:15:19;;;;;;;5.25;2.60;;;8.40;99.90;;;;;;5053852;28;20482;-70
2022/04/11 01:17:44;;;;;;;3.55;2.55;;;8.50;99.90;;;;;;5053615;28;20029;-70
2022/04/11 01:20:12;;;;;;;4.47;2.60;;;8.40;99.90;;;;;;5035708;28;20021;-71
2022/04/11 01:22:38;;;;;;;3.97;2.60;;;8.40;99.90;;;;;;5053828;28;20021;-70
2022/04/11 01:25:04;;;;;;;3.38;2.15;;;8.30;99.90;;;;;;5053180;28;20136;-70
2022/04/11 01:27:31;;;;;;;2.95;2.45;;;8.30;99.90;;;;;;5053423;28;20068;-70
2022/04/11 01:29:57;;;;;;;6.43;2.60;;;8.30;99.90;;;;;;5053478;28;20446;-70
2022/04/11 01:32:23;;;;;;;3.83;2.60;;;8.20;99.90;;;;;;5053415;28;20112;-70
2022/04/11 01:34:49;;;;;;;4.22;2.30;;;8.30;99.90;;;;;;5053410;28;20020;-70
2022/04/11 01:37:14;;;;;;;3.97;2.58;;;8.30;99.90;;;;;;5053894;28;20078;-71
2022/04/11 01:39:40;;;;;;;4.20;2.80;;;8.30;99.90;;;;;;5053307;28;20021;-71
2022/04/11 01:42:06;;;;;;;5.22;2.42;;;8.30;99.90;;;;;;5053558;28;20083;-70
2022/04/11 01:44:31;;;;;;;4.28;2.67;;;8.30;99.90;;;;;;5053767;28;20605;-71
2022/04/11 01:46:57;;;;;;;4.85;2.58;;;8.20;99.90;;;;;;5053496;28;20050;-71
2022/04/11 01:49:23;;;;;;;3.58;2.40;;;8.10;99.90;;;;;;5053438;28;20086;-71
2022/04/11 01:51:48;;;;;;;3.20;2.38;;;8.10;99.90;;;;;;5035183;28;20521;-70
2022/04/11 01:54:14;;;;;;;4.97;3.40;;;8.10;99.90;;;;;;5053395;28;20126;-70
2022/04/11 01:56:39;;;;;;;4.13;2.67;;;8.10;99.90;;;;;;5053407;28;20027;-70
2022/04/11 01:59:05;;;;;;;4.30;2.58;;;8.00;99.90;;;;;;5053113;28;20025;-70
2022/04/11 02:01:31;;;;;;;4.72;2.40;;;8.00;99.90;;;;;;5053075;28;20434;-70
2022/04/11 02:03:56;;;;;;;4.72;2.50;;;8.00;99.90;;;;;;5053070;28;20029;-70
2022/04/11 02:06:22;;;;;;;4.32;2.90;;;7.90;99.90;;;;;;5053289;28;20079;-71
2022/04/11 02:08:48;;;;;;;4.65;2.67;;;7.90;99.90;;;;;;5053309;28;20032;-70
2022/04/11 02:11:13;;;;;;;4.10;2.85;;;7.90;99.90;;;;;;5053159;28;20479;-70
2022/04/11 02:13:39;;;;;;;3.70;2.50;;;7.80;99.90;;;;;;5053187;28;20025;-71
2022/04/11 02:16:05;;;;;;;3.97;2.60;;;7.90;99.90;;;;;;5034981;28;20024;-70
2022/04/11 02:18:30;;;;;;;4.80;3.03;;;7.80;99.90;;;;;;5052892;28;20067;-70
2022/04/11 02:20:56;;;;;;;3.00;2.10;;;7.70;99.90;;;;;;5052838;28;20062;-70
2022/04/11 02:23:22;;;;;;;3.97;2.75;;;7.70;99.90;;;;;;5053161;28;20029;-71
2022/04/11 02:25:47;;;;;;;5.38;2.85;;;7.80;99.90;;;;;;5053131;28;20021;-70
2022/04/11 02:28:13;;;;;;;4.80;2.70;;;7.80;99.90;;;;;;5053080;28;20520;-70
2022/04/11 02:30:39;;;;;;;3.92;2.70;;;7.80;99.90;;;;;;5052807;28;20100;-70
2022/04/11 02:33:05;;;;;;;3.83;2.42;;;7.70;99.90;;;;;;5052981;28;20482;-69
2022/04/11 02:35:31;;;;;;;4.63;2.60;;;7.70;99.90;;;;;;5053324;28;20021;-70
2022/04/11 02:37:57;;;;;;;4.18;2.45;;;7.70;99.90;;;;;;5052780;28;20085;-71
2022/04/11 02:40:22;;;;;;;4.38;2.53;;;7.70;99.90;;;;;;5052683;28;20049;-70
2022/04/11 02:42:48;;;;;;;3.80;2.70;;;7.70;99.90;;;;;;5052906;28;20033;-70
2022/04/11 02:45:15;;;;;;;5.15;2.70;;;7.60;99.90;;;;;;5054398;28;20024;-71
2022/04/11 02:47:42;;;;;;;4.78;2.50;;;7.60;99.90;;;;;;5056744;28;20360;-70
2022/04/11 02:50:08;;;;;;;4.97;2.63;;;7.70;99.90;;;;;;5056465;28;20029;-71
2022/04/11 02:52:34;;;;;;;4.10;2.72;;;7.70;99.90;;;;;;5056297;28;20021;-70
2022/04/11 02:55:00;;;;;;;4.03;2.38;;;7.80;99.90;;;;;;5056632;28;20021;-72
2022/04/11 02:57:26;;;;;;;2.70;2.13;;;7.70;99.90;;;;;;5056317;28;20503;-70
2022/04/11 02:59:52;;;;;;;4.97;2.58;;;7.60;99.90;;;;;;5056285;28;20025;-70
2022/04/11 03:02:18;;;;;;;5.20;2.80;;;7.70;99.90;;;;;;5056219;28;20025;-70
2022/04/11 03:04:44;;;;;;;4.32;3.15;;;7.70;99.90;;;;;;5056474;28;20055;-69
2022/04/11 03:07:09;;;;;;;4.95;2.58;;;7.70;99.90;;;;;;5056420;28;20076;-70
2022/04/11 03:09:35;;;;;;;4.43;2.60;;;7.70;99.90;;;;;;5056050;28;20032;-71
2022/04/11 03:12:01;;;;;;;4.20;2.78;;;7.70;99.90;;;;;;5055959;28;20108;-71
2022/04/11 03:14:27;;;;;;;3.97;2.70;;;7.70;99.90;;;;;;5056202;28;20048;-71
2022/04/11 03:16:53;;;;;;;6.88;2.92;;;7.60;99.90;;;;;;5055979;28;20025;-70
2022/04/11 03:19:20;;;;;;;4.10;2.72;;;7.70;99.90;;;;;;5056456;28;20021;-69
2022/04/11 03:21:45;;;;;;;3.28;2.40;;;7.70;99.90;;;;;;5055870;28;20024;-70
2022/04/11 03:24:11;;;;;;;3.72;2.70;;;7.70;99.90;;;;;;5055693;28;20493;-71
2022/04/11 03:26:37;;;;;;;3.92;2.80;;;7.70;99.90;;;;;;5055785;28;20478;-70
2022/04/11 03:29:03;;;;;;;5.32;2.88;;;7.70;99.90;;;;;;5055724;28;20399;-69
2022/04/11 03:31:29;;;;;;;4.70;3.08;;;7.70;99.90;;;;;;5055866;28;20033;-71
2022/04/11 03:33:54;;;;;;;5.25;2.78;;;7.70;99.90;;;;;;5055920;28;20490;-70
2022/04/11 03:36:24;;;;;;;5.97;3.05;;;7.70;99.90;;;;;;5055602;28;20021;-71
2022/04/11 03:38:50;;;;;;;5.77;2.40;;;7.70;99.90;;;;;;5055830;28;20017;-70
2022/04/11 03:41:15;;;;;;;5.65;3.33;;;7.60;99.90;;;;;;5055472;28;20036;-71
2022/04/11 03:43:41;;;;;;;4.47;2.60;;;7.60;99.90;;;;;;5055429;28;20399;-71
2022/04/11 03:46:07;;;;;;;5.13;2.95;;;7.60;99.90;;;;;;5055687;28;20017;-71
2022/04/11 03:48:32;;;;;;;5.47;2.92;;;7.60;99.90;;;;;;5055377;28;20021;-69
2022/04/11 03:50:58;;;;;;;4.53;2.90;;;7.60;99.90;;;;;;5055611;28;20049;-71
2022/04/11 03:53:24;;;;;;;4.22;3.03;;;7.50;99.90;;;;;;5055472;28;20040;-71
2022/04/11 03:55:49;;;;;;;4.82;2.88;;;7.50;99.90;;;;;;5055182;28;20029;-70
2022/04/11 03:58:15;;;;;;;4.15;2.83;;;7.50;99.90;;;;;;5055455;28;20091;-70
2022/04/11 04:00:41;;;;;;;5.45;3.25;;;7.50;99.90;;;;;;5037305;28;20025;-70
2022/04/11 04:03:09;;;;;;;4.10;3.05;;;7.50;99.90;;;;;;5055130;28;20025;-70
2022/04/11 04:05:46;;;;;;;4.82;2.97;;;7.40;99.90;;;;;;5055108;28;20021;-71
2022/04/11 04:08:13;;;;;;;5.20;2.67;;;7.40;99.90;;;;;;5055015;28;20047;-70
2022/04/11 04:10:43;;;;;;;5.35;2.60;;;7.40;99.90;;;;;;5055206;28;20017;-70
2022/04/11 04:13:08;;;;;;;4.82;2.95;;;7.40;99.90;;;;;;5054838;28;20029;-70
2022/04/11 04:15:34;;;;;;;5.32;3.00;;;7.40;99.90;;;;;;5055027;28;20116;-70
2022/04/11 04:18:00;;;;;;;5.68;2.80;;;7.30;99.90;;;;;;5055085;28;20025;-70
2022/04/11 04:20:26;;;;;;;4.60;3.00;;;7.40;99.90;;;;;;5055034;28;20060;-70
2022/04/11 04:22:56;;;;;;;4.25;2.85;;;7.40;99.90;;;;;;5054639;28;20097;-70
2022/04/11 04:25:23;;;;;;;5.55;2.55;;;7.40;99.90;;;;;;5054268;28;20059;-70
2022/04/11 04:27:48;;;;;;;3.92;2.90;;;7.30;99.90;;;;;;5054591;28;20032;-71
2022/04/11 04:30:14;;;;;;;5.93;3.03;;;7.30;99.90;;;;;;5054859;28;20478;-71
2022/04/11 04:32:41;;;;;;;4.82;3.28;;;7.30;99.90;;;;;;5054437;28;20040;-70
2022/04/11 04:35:07;;;;;;;4.70;2.90;;;7.30;99.90;;;;;;5054462;28;20075;-70
2022/04/11 04:37:33;;;;;;;3.85;2.88;;;7.30;99.90;;;;;;5054465;28;20013;-71
2022/04/11 04:39:59;;;;;;;5.03;2.90;;;7.30;99.90;;;;;;5054391;28;20153;-70
2022/04/11 04:42:26;;;;;;;4.63;2.58;;;7.30;99.90;;;;;;5054621;28;20111;-71
2022/04/11 04:44:55;;;;;;;7.30;2.75;;;7.30;99.90;;;;;;5054573;28;20044;-70
2022/04/11 04:47:22;;;;;;;4.72;2.72;;;7.30;99.90;;;;;;5054254;28;20021;-70
2022/04/11 04:49:48;;;;;;;4.07;2.50;;;7.30;99.90;;;;;;5036339;28;20104;-70
2022/04/11 04:52:14;;;;;;;6.63;3.13;;;7.20;99.90;;;;;;5036207;28;20061;-71
2022/04/11 04:54:40;;;;;;;5.55;3.03;;;7.10;99.90;;;;;;5054101;28;20048;-71
2022/04/11 04:57:06;;;;;;;7.82;2.88;;;7.20;99.90;;;;;;5054055;28;20443;-70
2022/04/11 04:59:32;;;;;;;4.43;2.63;;;7.20;99.90;;;;;;5054244;28;20368;-71
2022/04/11 05:01:58;;;;;;;5.10;2.63;;;7.20;99.90;;;;;;5053959;28;20099;-71
2022/04/11 05:04:24;;;;;;;4.20;2.72;;;7.10;99.90;;;;;;5053942;28;20035;-71
2022/04/11 05:06:49;;;;;;;4.88;2.70;;;7.10;99.90;;;;;;5054143;28;20029;-71
2022/04/11 05:09:16;;;;;;;4.07;2.95;;;7.20;99.90;;;;;;5053384;28;20025;-70
2022/04/11 05:11:41;;;;;;;4.22;2.83;;;7.20;99.90;;;;;;5053726;28;20475;-70
2022/04/11 05:14:07;;;;;;;6.60;3.13;;;7.20;99.90;;;;;;5053896;28;20013;-70
2022/04/11 05:16:33;;;;;;;4.55;2.72;;;7.10;99.90;;;;;;5053711;28;20053;-71
2022/04/11 05:18:58;;;;;;;3.70;2.45;;;7.20;99.90;;;;;;5053632;28;20418;-70
2022/04/11 05:21:24;;;;;;;5.07;2.75;;;7.10;99.90;;;;;;5053621;28;20390;-70
2022/04/11 05:23:50;;;;;;;4.93;3.00;;;7.10;99.90;;;;;;5053571;28;20041;-70
2022/04/11 05:26:15;;;;;;;5.40;3.03;;;7.00;99.90;;;;;;5053523;28;20033;-70
2022/04/11 05:28:41;;;;;;;3.72;2.70;;;7.10;99.90;;;;;;5053448;28;20023;-70
2022/04/11 05:31:07;;;;;;;5.40;3.00;;;7.10;99.90;;;;;;5053744;28;20052;-71
2022/04/11 05:33:32;;;;;;;5.20;2.80;;;7.10;99.90;;;;;;5053336;28;20120;-71
2022/04/11 05:35:58;;;;;;;3.53;2.70;;;7.10;99.90;;;;;;5053679;28;20435;-71
2022/04/11 05:38:24;;;;;;;4.18;2.83;;;7.20;99.90;;;;;;5053357;28;20055;-70
2022/04/11 05:40:50;;;;;;;3.65;2.60;;;7.10;99.90;;;;;;5053306;28;20029;-71
2022/04/11 05:43:16;;;;;;;6.45;2.90;;;7.20;99.90;;;;;;5053270;28;20052;-71
2022/04/11 05:45:42;;;;;;;4.70;3.00;;;7.30;99.90;;;;;;5035370;28;20024;-71
2022/04/11 05:48:09;;;;;;;4.53;3.10;;;7.30;99.90;;;;;;5053548;28;20036;-70
2022/04/11 05:50:35;;;;;;;4.32;2.70;;;7.30;99.90;;;;;;5053531;28;20057;-70
2022/04/11 05:53:01;;;;;;;4.72;2.85;;;7.40;99.90;;;;;;5053134;28;20060;-70
2022/04/11 05:55:27;;;;;;;4.57;2.83;;;7.50;99.90;;;;;;5053202;28;20025;-71
2022/04/11 05:57:53;;;;;;;4.05;2.50;;;7.60;99.90;;;;;;5053343;28;20028;-71
2022/04/11 06:00:20;;;;;;;4.80;2.70;;;7.70;99.90;;;;;;5035195;28;20025;-71
2022/04/11 06:02:45;;;;;;;8.10;2.60;;;7.70;99.90;;;;;;5035238;28;20029;-70
2022/04/11 06:05:11;;;;;;;4.93;2.60;;;7.90;99.90;;;;;;5053045;28;20155;-71
2022/04/11 06:07:37;;;;;;;3.03;2.40;;;7.90;99.90;;;;;;5053036;28;20481;-71
2022/04/11 06:10:04;;;;;;;3.92;2.70;;;7.90;99.90;;;;;;5053241;28;20032;-70
2022/04/11 06:12:30;;;;;;;5.70;3.15;;;7.90;99.90;;;;;;5053430;28;20032;-71
2022/04/11 06:14:55;;;;;;;6.32;2.85;;;8.10;99.90;;;;;;5053082;28;20025;-70
2022/04/11 06:17:23;;;;;;;4.95;2.70;;;8.30;99.90;;;;;;5052965;28;20520;-70
2022/04/11 06:19:59;;;;;;;5.13;2.78;;;8.40;99.90;;;;;;5053812;28;20414;-70
2022/04/11 06:22:26;;;;;;;5.60;2.65;;;8.60;99.90;;;;;;5057036;28;20086;-71
2022/04/11 06:24:59;;;;;;;4.15;2.70;;;8.70;99.90;;;;;;5056722;28;20052;-70
2022/04/11 06:27:24;;;;;;;5.22;2.75;;;8.80;99.90;;;;;;5056969;28;20031;-70
2022/04/11 06:29:56;;;;;;;3.97;2.85;;;8.80;99.90;;;;;;5057131;28;20029;-70
2022/04/11 06:32:29;;;;;;;3.92;2.45;;;9.00;99.90;;;;;;5057016;28;20029;-71
2022/04/11 06:34:55;;;;;;;4.70;2.53;;;9.20;99.90;;;;;;5056786;28;20478;-70
2022/04/11 06:37:23;;;;;;;4.22;2.40;;;9.40;99.90;;;;;;5056750;28;20017;-71
2022/04/11 06:39:49;;;;;;;3.03;2.30;;;9.60;99.90;;;;;;5056637;28;20025;-71
2022/04/11 06:42:14;;;;;;;3.22;2.30;;;9.90;99.90;;;;;;5056594;28;20061;-71
2022/04/11 06:44:40;;;;;;;3.95;2.70;;;10.90;99.90;;;;;;5056569;28;20078;-71
2022/04/11 06:47:08;;;;;;;4.90;2.30;;;12.60;99.90;;;;;;5056507;28;20052;-71
2022/04/11 06:49:34;;;;;;;2.83;2.10;;;15.50;99.90;;;;;;5055576;28;20021;-72
2022/04/11 06:52:00;;;;;;;3.40;2.17;;;17.60;96.80;;;;;;5055587;28;20035;-72
2022/04/11 06:54:27;;;;;;;4.38;2.20;;;18.90;93.20;;;;;;5038523;28;20025;-71
2022/04/11 06:56:52;;;;;;;3.40;2.20;;;18.30;91.30;;;;;;5056916;28;20015;-71
2022/04/11 06:59:18;;;;;;;4.40;2.13;;;18.70;90.70;;;;;;5056582;28;20486;-71
2022/04/11 07:01:44;;;;;;;2.92;1.90;;;19.30;88.50;;;;;;5056274;28;20025;-71
2022/04/11 07:04:09;;;;;;;4.50;1.98;;;19.80;85.70;;;;;;5056212;28;20025;-71
2022/04/11 07:06:35;;;;;;;4.07;1.95;;;21.00;81.30;;;;;;5056455;28;20025;-71
2022/04/11 07:09:00;;;;;;;3.90;2.28;;;21.40;79.20;;;;;;5056167;28;20132;-72
2022/04/11 07:11:26;;;;;;;3.47;2.00;;;22.40;74.80;;;;;;5056272;28;20021;-71
2022/04/11 07:13:52;;;;;;;4.20;2.30;;;22.30;71.70;;;;;;5056025;28;20025;-71
2022/04/11 07:16:18;;;;;;;3.47;2.40;;;22.50;70.50;;;;;;5055977;28;20092;-72
2022/04/11 07:18:43;;;;;;;3.28;2.00;;;22.80;69.70;;;;;;5055955;28;20083;-71
2022/04/11 07:21:09;;;;;;;2.22;1.85;;;23.20;67.50;;;;;;5055899;28;20024;-72
2022/04/11 07:23:34;;;;;;;4.70;2.22;;;23.00;66.40;;;;;;5055638;28;20056;-72
2022/04/11 07:26:00;;;;;;;3.55;1.80;;;23.20;64.70;;;;;;5054605;28;20055;-71
2022/04/11 07:28:26;;;;;;;3.67;2.00;;;22.90;64.50;;;;;;5054626;28;20061;-72
2022/04/11 07:30:51;;;;;;;3.30;2.10;;;24.40;64.10;;;;;;5054428;28;20024;-72
2022/04/11 07:33:17;;;;;;;5.25;3.30;;;25.20;60.50;;;;;;5054703;28;20059;-71
2022/04/11 07:35:43;;;;;;;2.85;1.67;;;25.50;59.80;;;;;;5036637;28;20017;-72
2022/04/11 07:38:09;;;;;;;4.05;2.53;;;25.50;58.00;;;;;;5054471;28;20490;-72
2022/04/11 07:40:35;;;;;;;2.22;1.70;;;25.80;57.30;;;;;;5054498;28;20122;-71
2022/04/11 07:43:01;;;;;;;1.92;1.65;;;26.50;55.60;;;;;;5054963;28;20063;-71
2022/04/11 07:45:26;;;;;;;1.92;1.70;;;26.70;54.50;;;;;;5054268;28;20488;-71
2022/04/11 07:47:52;;;;;;;2.30;1.48;;;24.20;54.60;;;;;;5054003;28;20036;-70
2022/04/11 07:50:18;;;;;;;2.90;1.85;;;22.10;59.30;;;;;;5054309;28;20151;-71
2022/04/11 07:52:44;;;;;;;3.15;1.92;;;23.60;57.70;;;;;;5054411;28;20025;-72
2022/04/11 07:55:11;;;;;;;2.05;1.85;;;25.70;55.60;;;;;;5054185;28;20040;-72
2022/04/11 07:57:38;;;;;;;3.00;1.63;;;26.90;54.10;;;;;;5054157;28;20029;-72
2022/04/11 08:00:09;;;;;;;2.50;1.50;;;27.40;52.80;;;;;;5054361;28;20363;-72
2022/04/11 08:02:35;;;;;;;2.67;1.50;;;28.20;51.90;;;;;;5054379;28;20104;-73
2022/04/11 08:05:03;;;;;;;4.75;2.20;;;28.80;51.30;;;;;;5054035;28;20021;-71
2022/04/11 08:07:35;;;;;;;2.93;1.60;;;29.30;49.80;;;;;;5054308;28;20112;-72
2022/04/11 08:10:05;;;;;;;3.10;1.50;;;29.10;49.60;;;;;;5054016;28;20099;-72
2022/04/11 08:12:31;;;;;;;3.35;1.67;;;28.70;49.00;;;;;;5054131;28;20029;-73
2022/04/11 08:14:57;;;;;;;3.42;1.80;;;28.80;48.80;;;;;;5053823;28;20063;-72
2022/04/11 08:17:23;;;;;;;9.10;6.40;;;29.20;48.40;;;;;;5053802;28;20039;-72
2022/04/11 08:19:49;;;;;;;2.10;1.48;;;28.80;48.10;;;;;;5054094;28;20021;-72
2022/04/11 08:22:15;;;;;;;2.40;1.50;;;28.50;49.30;;;;;;5053761;28;20027;-72
2022/04/11 08:24:40;;;;;;;1.83;1.40;;;28.70;48.60;;;;;;5009056;28;1293929;-71
2022/04/11 08:27:06;;;;;;;3.35;1.60;;;29.00;47.70;;;;;;5054683;28;20082;-71
2022/04/11 08:29:32;;;;;;;4.68;2.10;;;29.30;48.00;;;;;;5054629;28;20399;-72
2022/04/11 08:31:57;;;;;;;3.40;1.55;;;30.00;47.60;;;;;;5054495;28;20471;-72
2022/04/11 08:34:23;;;;;;;4.22;1.98;;;28.50;46.80;;;;;;5054532;28;20024;-71
2022/04/11 08:36:49;;;;;;;2.22;1.45;;;26.70;48.80;;;;;;5055050;28;20024;-72
2022/04/11 08:39:15;;;;;;;3.15;1.50;;;24.90;50.10;;;;;;5054462;28;20066;-71
2022/04/11 08:41:41;;;;;;;2.88;1.75;;;24.90;51.90;;;;;;5054623;28;20372;-72
2022/04/11 08:44:07;;;;;;;4.55;1.60;;;26.50;50.80;;;;;;5053898;28;20027;-68
2022/04/11 08:46:35;;;;;;;2.08;1.48;;;27.60;49.50;;;;;;5054297;28;20017;-71
2022/04/11 08:49:03;;;;;;;3.00;1.58;;;28.80;48.00;;;;;;5054258;28;20013;-69
2022/04/11 08:51:33;;;;;;;4.93;1.70;;;29.30;47.30;;;;;;5054163;28;20017;-70
2022/04/11 08:54:01;;;;;;;2.80;1.40;;;30.70;46.90;;;;;;5054406;28;20258;-70
2022/04/11 08:56:30;;;;;;;3.80;1.73;;;30.40;45.90;;;;;;5054066;28;20096;-72
2022/04/11 08:58:56;;;;;;;;;;;30.00;45.70;;;;;;5054743;28;20024;-70
2022/04/11 09:01:22;;;;;;;4.70;1.83;;;29.90;46.20;;;;;;5053998;28;20361;-70
2022/04/11 09:03:49;;;;;;;2.60;1.48;;;29.70;45.30;;;;;;5053987;28;20503;-71
2022/04/11 09:06:15;;;;;;;3.38;1.33;;;29.60;46.10;;;;;;5053959;28;20103;-72
2022/04/11 09:08:40;;;;;;;;;;;29.60;46.30;;;;;;5054311;28;20071;-69
2022/04/11 09:11:06;;;;;;;;;;;27.70;46.90;;;;;;5054591;28;19905;-72
2022/04/11 09:13:52;;;;;;;2.70;1.35;;;27.00;48.00;;;;;;5053706;28;19951;-70
2022/04/11 09:16:18;;;;;;;3.53;1.45;;;28.40;47.70;;;;;;5053722;28;20051;-71
2022/04/11 09:18:49;;;;;;;3.03;1.70;;;30.00;46.40;;;;;;5035812;28;20411;-71
2022/04/11 09:21:16;;;;;;;2.85;1.50;;;31.20;45.80;;;;;;5053920;28;20478;-68
2022/04/11 09:23:41;;;;;;;4.47;1.90;;;31.40;45.30;;;;;;5053653;28;20098;-69
2022/04/11 09:26:23;;;;;;;4.63;1.65;;;31.10;45.30;;;;;;5053519;28;20032;-70
2022/04/11 09:29:00;;;;;;;5.22;1.92;;;31.70;45.60;;;;;;5053822;28;20495;-71
2022/04/11 09:31:26;;;;;;;4.78;1.80;;;31.70;45.30;;;;;;5053447;28;20025;-71
2022/04/11 09:33:52;;;;;;;2.75;1.73;;;31.80;45.70;;;;;;5053733;28;20060;-71
2022/04/11 09:36:20;;;;;;;3.30;1.75;;;32.00;44.90;;;;;;5053372;28;20017;-71
2022/04/11 09:38:59;;;;;;;3.97;1.70;;;32.20;45.00;;;;;;5053648;28;20029;-69
2022/04/11 09:41:34;;;;;;;4.00;1.67;;;32.80;44.50;;;;;;5053903;28;20017;-72
2022/04/11 09:44:31;;;;;;;3.47;1.85;;;32.30;44.50;;;;;;5053839;28;20475;-72
2022/04/11 09:47:03;;;;;;;3.22;1.70;;;32.50;44.00;;;;;;5053240;28;20066;-72
2022/04/11 09:49:30;;;;;;;4.57;1.83;;;33.10;44.90;;;;;;5053245;28;20017;-69
2022/04/11 09:52:14;;;;;;;3.38;1.70;;;33.20;44.40;;;;;;5053398;28;20025;-72
2022/04/11 09:54:42;;;;;;;4.55;1.77;;;33.20;44.10;;;;;;5053626;28;20056;-72
2022/04/11 09:57:09;;;;;;;;;;;32.70;44.20;;;;;;5053598;28;20025;-70
2022/04/11 09:59:35;;;;;;;4.53;1.95;;;31.80;44.90;;;;;;5053100;28;19911;-71
2022/04/11 10:02:01;;;;;;;5.47;2.22;;;31.80;45.30;;;;;;5053063;28;20025;-72
2022/04/11 10:04:27;;;;;;;4.50;1.90;;;32.90;44.50;;;;;;5053050;28;20483;-71
2022/04/11 10:06:54;;;;;;;5.18;1.70;;;34.00;44.70;;;;;;5053281;28;20036;-71
2022/04/11 10:09:23;;;;;;;5.55;2.58;;;32.60;43.70;;;;;;5052967;28;20041;-70
2022/04/11 10:11:51;;;;;;;2.38;2.08;;;31.40;46.00;;;;;;5053217;28;20021;-73
2022/04/11 10:14:23;;;;;;;4.90;2.13;;;33.10;45.40;;;;;;5052909;28;20029;-72
2022/04/11 10:16:51;;;;;;;7.43;2.90;;;33.50;44.60;;;;;;5053459;28;20029;-73
2022/04/11 10:19:21;;;;;;;3.28;1.92;;;33.80;44.60;;;;;;5052926;28;20021;-72
2022/04/11 10:21:48;;;;;;;4.55;2.38;;;34.10;44.50;;;;;;5053171;28;20108;-72
2022/04/11 10:24:21;;;;;;;5.72;2.55;;;34.30;44.20;;;;;;5052635;28;20049;-70
2022/04/11 10:26:54;;;;;;;4.82;2.60;;;34.30;43.80;;;;;;5053135;28;20032;-71
2022/04/11 10:29:37;;;;;;;3.92;2.00;;;33.80;44.70;;;;;;5052877;28;20450;-70
2022/04/11 10:32:10;;;;;;;6.22;2.63;;;33.40;44.80;;;;;;5052819;28;20039;-71
2022/04/11 10:35:02;;;;;;;4.30;2.10;;;34.30;44.70;;;;;;5053329;28;20018;-71
2022/04/11 10:37:48;;;;;;;4.00;1.98;;;34.10;44.50;;;;;;5053103;28;20024;-70
2022/04/11 10:40:17;;;;;;;4.10;2.20;;;31.80;46.00;;;;;;5052544;28;20025;-72
2022/04/11 10:43:00;;;;;;;3.10;2.22;;;32.90;45.90;;;;;;5053205;28;20032;-70
2022/04/11 10:45:31;;;;;;;4.75;2.72;;;33.60;45.00;;;;;;5034704;28;20368;-69
2022/04/11 10:47:56;;;;;;;5.07;2.58;;;33.20;45.70;;;;;;5052503;28;20021;-70
2022/04/11 10:50:32;;;;;;;4.93;2.25;;;33.80;45.00;;;;;;5052573;28;20390;-71
2022/04/11 10:53:10;;;;;;;6.22;2.33;;;33.10;45.10;;;;;;5052770;28;20112;-70
2022/04/11 10:55:53;;;;;;;9.20;3.10;;;33.20;45.60;;;;;;5052596;28;20067;-72
2022/04/11 10:58:32;;;;;;;4.53;2.53;;;33.00;45.90;;;;;;5052567;28;20032;-72
2022/04/11 11:00:58;;;;;;;4.07;2.30;;;33.30;45.80;;;;;;5053096;28;20021;-70
2022/04/11 11:03:24;;;;;;;5.25;2.47;;;34.20;44.80;;;;;;5034367;28;20036;-72
2022/04/11 11:05:50;;;;;;;4.95;2.28;;;35.00;44.50;;;;;;5053554;28;20112;-72
2022/04/11 11:08:16;;;;;;;;;;;34.40;44.50;;;;;;5056595;28;20078;-72
2022/04/11 11:10:50;;;;;;;4.30;2.60;;;33.10;44.50;;;;;;5056472;28;19909;-70
2022/04/11 11:13:34;;;;;;;5.20;3.85;;;32.80;45.90;;;;;;5056427;28;20040;-69
2022/04/11 11:16:20;;;;;;;5.40;2.70;;;33.00;45.30;;;;;;5055961;28;20399;-71
2022/04/11 11:18:49;;;;;;;5.13;2.47;;;33.50;46.00;;;;;;5055841;28;20398;-69
2022/04/11 11:21:20;;;;;;;;;;;34.10;44.70;;;;;;5056330;28;20025;-70
2022/04/11 11:24:08;;;;;;;;;;;33.00;44.80;;;;;;5051258;28;19951;-69
2022/04/11 11:26:46;;;;;;;;;;;31.00;46.90;;;;;;5041723;28;20394;-68
2022/04/11 11:29:14;;;;;;;;;;;31.10;48.10;;;;;;5040965;28;19905;-80
2022/04/11 11:31:40;;;;;;;;;;;30.50;48.60;;;;;;5056648;28;20000;-68
2022/04/11 11:34:10;;;;;;;;;;;29.90;49.50;;;;;;5046335;28;19956;-68
2022/04/11 11:36:36;;;;;;;;;;;29.10;50.90;;;;;;5039764;28;20003;-69
2022/04/11 11:39:10;;;;;;;;;;;28.30;52.00;;;;;;5044047;28;19904;-68
2022/04/11 11:41:37;;;;;;;;;;;27.40;53.90;;;;;;5056033;28;19965;-69
2022/04/11 11:44:03;;;;;;;;;;;27.20;55.10;;;;;;5056233;28;19931;-68
2022/04/11 11:46:29;;;;;;;;;;;26.90;55.60;;;;;;5055860;28;19904;-68
2022/04/11 11:48:55;;;;;;;;;;;26.10;56.30;;;;;;5047516;28;19931;-69
2022/04/11 11:51:21;;;;;;;;;;;25.90;57.60;;;;;;5036700;28;19912;-69
2022/04/11 11:53:52;;;;;;;;;;;25.70;57.60;;;;;;5035597;28;19916;-69
2022/04/11 11:56:18;;;;;;;;;;;25.50;57.70;;;;;;5035797;28;20367;-70
2022/04/11 11:58:43;;;;;;;;;;;25.70;58.40;;;;;;5036560;28;19909;-69
2022/04/11 12:01:10;;;;;;;;;;;26.10;58.90;;;;;;5053876;28;20359;-69
2022/04/11 12:06:26;;;;;;;;;;;26.10;58.70;;;;;;5040043;28;19912;-68
2022/04/11 12:09:01;;;;;;;;;;;26.00;59.40;;;;;;5036312;28;19909;-70
2022/04/11 12:11:27;;;;;;;;;;;25.60;59.10;;;;;;5017762;28;20275;-69
2022/04/11 12:14:00;;;;;;;4.93;2.35;;;25.30;60.10;;;;;;5034988;28;19920;-67
2022/04/11 12:16:29;;;;;;;7.82;2.63;;;25.10;60.20;;;;;;5034675;28;20017;-67
2022/04/11 12:18:56;;;;;;;9.00;2.78;;;25.30;60.30;;;;;;5034390;28;20018;-67
2022/04/11 12:21:36;;;;;;;7.32;2.97;;;24.90;61.70;;;;;;5039706;28;20025;-70
2022/04/11 12:24:03;;;;;;;7.55;3.00;;;24.20;62.30;;;;;;5054047;28;20503;-69
2022/04/11 12:26:31;;;;;;;10.77;3.72;;;24.10;63.60;;;;;;5054665;28;20021;-75
2022/04/11 12:29:00;;;;;;;7.10;2.80;;;25.00;63.40;;;;;;5054564;28;20051;-72
2022/04/11 12:31:26;;;;;;;9.47;3.43;;;25.80;62.10;;;;;;5053914;28;20017;-74
2022/04/11 12:33:52;;;;;;;7.88;3.35;;;25.80;61.90;;;;;;5054009;28;20113;-72
2022/04/11 12:36:22;;;;;;;8.98;3.67;;;25.90;62.30;;;;;;5042604;28;20025;-75
2022/04/11 12:38:56;;;;;;;8.07;2.83;;;25.70;61.70;;;;;;5046631;28;20052;-76
2022/04/11 12:41:33;;;;;;;9.93;3.42;;;25.70;61.70;;;;;;5054573;28;20029;-76
2022/04/11 12:44:13;;;;;;;7.65;2.97;;;25.70;62.50;;;;;;5036246;28;20111;-76
2022/04/11 12:46:38;;;;;;;;;;;26.00;63.10;;;;;;5036540;28;20025;-78
2022/04/11 12:49:05;;;;;;;7.43;2.88;;;25.80;63.20;;;;;;5054333;28;19911;-74
2022/04/11 12:51:32;;;;;;;7.88;3.15;;;25.30;63.50;;;;;;5054787;28;20021;-73
2022/04/11 12:54:05;;;;;;;10.25;3.75;;;25.20;64.80;;;;;;5054035;28;20033;-79
2022/04/11 12:56:42;;;;;;;10.45;3.55;;;25.40;64.40;;;;;;5053510;28;20017;-69
2022/04/11 12:59:08;;;;;;;6.90;3.33;;;25.80;64.20;;;;;;5044332;28;20021;-75
2022/04/11 13:01:54;;;;;;;10.48;3.70;;;25.90;63.90;;;;;;5044508;28;20021;-72
2022/04/11 13:04:20;;;;;;;11.30;3.35;;;25.80;64.10;;;;;;5052100;28;20051;-74